createdAt,value
2022-08-17T00:01:30.264Z,5.17
2022-08-17T00:04:19.035Z,4.87
2022-08-17T00:06:46.288Z,5.00
2022-08-17T00:09:18.524Z,5.07
2022-08-17T00:12:40.695Z,4.83
2022-08-17T00:14:34.895Z,5.07
2022-08-17T00:17:03.882Z,5.23
2022-08-17T00:19:32.669Z,5.33
2022-08-17T00:22:31.939Z,5.37
2022-08-17T00:24:50.013Z,5.10
2022-08-17T00:27:17.289Z,5.07
2022-08-17T00:29:45.833Z,5.10
2022-08-17T00:33:13.956Z,5.27
2022-08-17T00:35:01.076Z,5.20
2022-08-17T00:37:28.227Z,5.57
2022-08-17T00:39:55.389Z,5.47
2022-08-17T00:42:23.246Z,5.47
2022-08-17T00:44:51.642Z,5.47
2022-08-17T00:47:18.771Z,5.40
2022-08-17T00:49:46.099Z,5.73
2022-08-17T00:52:15.685Z,5.60
2022-08-17T00:54:45.333Z,5.90
2022-08-17T00:57:16.423Z,5.60
2022-08-17T00:59:47.085Z,5.60
2022-08-17T01:02:29.927Z,5.27
2022-08-17T01:05:01.793Z,5.87
2022-08-17T01:07:28.982Z,5.87
2022-08-17T01:09:56.217Z,5.87
2022-08-17T01:12:23.544Z,5.63
2022-08-17T01:14:50.712Z,5.70
2022-08-17T01:17:18.121Z,5.70
2022-08-17T01:19:45.359Z,5.47
2022-08-17T01:22:12.468Z,5.97
2022-08-17T01:24:44.177Z,6.00
2022-08-17T01:27:12.284Z,5.63
2022-08-17T01:29:40.266Z,6.33
2022-08-17T01:32:08.032Z,5.73
2022-08-17T01:34:42.626Z,6.50
2022-08-17T01:37:13.462Z,6.47
2022-08-17T01:39:52.044Z,5.97
2022-08-17T01:42:25.429Z,6.00
2022-08-17T01:44:56.215Z,5.97
2022-08-17T01:47:23.668Z,6.27
2022-08-17T01:49:51.245Z,6.13
2022-08-17T01:52:18.538Z,5.53
2022-08-17T01:54:47.391Z,5.90
2022-08-17T01:57:14.613Z,6.10
2022-08-17T01:59:42.347Z,6.13
2022-08-17T02:02:09.485Z,6.50
2022-08-17T02:04:37.227Z,6.20
2022-08-17T02:07:04.394Z,6.60
2022-08-17T02:09:31.762Z,6.50
2022-08-17T02:11:59.811Z,6.77
2022-08-17T02:14:46.927Z,6.40
2022-08-17T02:17:14.062Z,6.30
2022-08-17T02:19:41.859Z,6.67
2022-08-17T02:22:09.037Z,6.50
2022-08-17T02:24:58.864Z,6.33
2022-08-17T02:27:26.250Z,6.73
2022-08-17T02:29:53.372Z,6.20
2022-08-17T02:32:27.488Z,6.83
2022-08-17T02:34:56.046Z,6.77
2022-08-17T02:37:23.250Z,6.43
2022-08-17T02:39:50.445Z,6.53
2022-08-17T02:42:18.451Z,6.33
2022-08-17T02:44:45.601Z,6.70
2022-08-17T02:47:13.479Z,7.07
2022-08-17T02:49:44.123Z,6.93
2022-08-17T02:52:43.217Z,6.63
2022-08-17T02:55:11.362Z,6.73
2022-08-17T02:57:38.509Z,6.47
2022-08-17T03:00:07.186Z,6.60
2022-08-17T03:02:38.264Z,6.53
2022-08-17T03:05:05.757Z,6.80
2022-08-17T03:07:32.929Z,7.10
2022-08-17T03:10:00.159Z,6.70
2022-08-17T03:12:29.483Z,6.87
2022-08-17T03:14:56.611Z,7.20
2022-08-17T03:17:23.748Z,6.70
2022-08-17T03:19:50.884Z,7.03
2022-08-17T03:22:47.910Z,6.80
2022-08-17T03:25:05.837Z,7.40
2022-08-17T03:27:38.210Z,7.00
2022-08-17T03:30:10.644Z,7.00
2022-08-17T03:32:41.745Z,7.30
2022-08-17T03:35:09.520Z,7.50
2022-08-17T03:37:40.039Z,7.00
2022-08-17T03:40:08.355Z,7.27
2022-08-17T03:42:38.085Z,7.60
2022-08-17T03:45:06.051Z,7.23
2022-08-17T03:47:51.664Z,8.03
2022-08-17T03:50:38.012Z,7.90
2022-08-17T03:53:27.053Z,7.57
2022-08-17T03:56:13.180Z,7.50
2022-08-17T03:58:40.355Z,7.90
2022-08-17T04:01:07.780Z,8.80
2022-08-17T04:03:34.974Z,7.73
2022-08-17T04:06:02.282Z,7.70
2022-08-17T04:08:29.942Z,7.80
2022-08-17T04:10:57.471Z,7.93
2022-08-17T04:13:25.529Z,7.53
2022-08-17T04:15:52.835Z,8.00
2022-08-17T04:18:19.994Z,7.27
2022-08-17T04:20:47.329Z,7.40
2022-08-17T04:23:16.011Z,7.70
2022-08-17T04:25:46.097Z,7.77
2022-08-17T04:28:16.025Z,7.77
2022-08-17T04:30:45.173Z,6.77
2022-08-17T04:33:14.263Z,7.73
2022-08-17T04:35:43.546Z,7.97
2022-08-17T04:38:12.144Z,7.70
2022-08-17T04:40:57.956Z,7.40
2022-08-17T04:43:26.400Z,6.87
2022-08-17T04:45:56.521Z,7.13
2022-08-17T04:48:35.418Z,6.93
2022-08-17T04:51:04.867Z,7.03
2022-08-17T04:53:32.093Z,7.20
2022-08-17T04:55:59.344Z,6.47
2022-08-17T04:58:26.491Z,6.80
2022-08-17T05:00:53.667Z,6.33
2022-08-17T05:03:20.992Z,6.27
2022-08-17T05:05:51.225Z,6.20
2022-08-17T05:08:19.331Z,6.20
2022-08-17T05:10:46.967Z,5.55
2022-08-17T05:13:19.059Z,5.80
2022-08-17T05:15:47.899Z,5.97
2022-08-17T05:18:15.784Z,5.15
2022-08-17T05:20:42.949Z,5.38
2022-08-17T05:23:13.005Z,5.57
2022-08-17T05:25:42.044Z,5.78
2022-08-17T05:28:15.104Z,5.20
2022-08-17T05:30:43.589Z,5.40
2022-08-17T05:33:15.231Z,5.95
2022-08-17T05:35:44.023Z,5.10
2022-08-17T05:38:11.495Z,5.00
2022-08-17T05:40:38.908Z,5.28
2022-08-17T05:43:13.728Z,5.55
2022-08-17T05:45:55.139Z,5.10
2022-08-17T05:48:35.575Z,5.10
2022-08-17T05:51:26.097Z,4.47
2022-08-17T05:54:12.126Z,4.55
2022-08-17T05:56:58.118Z,4.60
2022-08-17T05:59:43.635Z,4.57
2022-08-17T06:02:23.259Z,4.65
2022-08-17T06:04:59.212Z,4.30
2022-08-17T06:07:41.345Z,4.72
2022-08-17T06:10:15.359Z,4.88
2022-08-17T06:12:54.737Z,4.80
2022-08-17T06:15:33.608Z,4.43
2022-08-17T06:18:02.757Z,5.00
2022-08-17T06:20:32.942Z,4.50
2022-08-17T06:23:05.281Z,4.70
2022-08-17T06:25:50.213Z,4.80
2022-08-17T06:28:24.242Z,4.50
2022-08-17T06:31:00.583Z,4.35
2022-08-17T06:33:34.285Z,4.82
2022-08-17T06:36:09.656Z,4.45
2022-08-17T06:38:56.188Z,4.10
2022-08-17T06:41:27.191Z,4.18
2022-08-17T06:44:09.942Z,3.85
2022-08-17T06:46:52.567Z,3.70
2022-08-17T06:49:40.521Z,4.00
2022-08-17T06:52:45.696Z,3.78
2022-08-17T06:55:38.180Z,3.60
2022-08-17T06:58:16.102Z,3.60
2022-08-17T07:00:45.989Z,3.42
2022-08-17T07:03:18.448Z,3.50
2022-08-17T07:05:48.804Z,3.65
2022-08-17T07:08:16.634Z,3.90
2022-08-17T07:10:50.248Z,3.30
2022-08-17T07:13:26.494Z,3.70
2022-08-17T07:15:57.166Z,3.70
2022-08-17T07:18:25.838Z,3.60
2022-08-17T07:20:56.917Z,3.42
2022-08-17T07:23:27.970Z,3.30
2022-08-17T07:26:03.860Z,3.75
2022-08-17T07:28:32.964Z,3.60
2022-08-17T07:31:00.117Z,3.83
2022-08-17T07:33:28.875Z,3.78
2022-08-17T07:35:57.329Z,3.92
2022-08-17T07:38:28.785Z,3.65
2022-08-17T07:41:05.276Z,3.60
2022-08-17T07:43:32.853Z,3.75
2022-08-17T07:46:30.882Z,4.03
2022-08-17T07:49:16.410Z,3.50
2022-08-17T07:51:43.796Z,4.70
2022-08-17T07:54:22.947Z,3.90
2022-08-17T07:56:50.078Z,4.22
2022-08-17T07:59:18.042Z,3.28
2022-08-17T08:02:03.627Z,3.85
2022-08-17T08:04:58.901Z,3.90
2022-08-17T08:07:31.780Z,4.13
2022-08-17T08:10:17.694Z,3.88
2022-08-17T08:12:46.285Z,4.28
2022-08-17T08:15:14.970Z,3.85
2022-08-17T08:17:57.536Z,3.85
2022-08-17T08:20:51.059Z,3.80
2022-08-17T08:23:25.605Z,3.60
2022-08-17T08:26:01.791Z,3.75
2022-08-17T08:28:39.557Z,4.05
2022-08-17T08:31:09.811Z,3.50
2022-08-17T08:33:48.545Z,3.67
2022-08-17T08:37:10.841Z,3.85
2022-08-17T08:39:16.155Z,3.47
2022-08-17T08:41:49.399Z,3.50
2022-08-17T08:45:01.329Z,3.55
2022-08-17T08:47:41.537Z,3.60
2022-08-17T08:50:37.666Z,3.60
2022-08-17T08:53:24.301Z,3.70
2022-08-17T08:55:59.606Z,3.42
2022-08-17T08:58:31.732Z,3.60
2022-08-17T09:01:16.783Z,3.38
2022-08-17T09:03:52.823Z,3.60
2022-08-17T09:06:44.399Z,3.40
2022-08-17T09:09:17.661Z,3.65
2022-08-17T09:12:04.197Z,3.53
2022-08-17T09:14:45.490Z,3.53
2022-08-17T09:17:14.411Z,3.50
2022-08-17T09:19:46.963Z,3.50
2022-08-17T09:22:17.410Z,3.30
2022-08-17T09:24:47.147Z,3.80
2022-08-17T09:27:19.206Z,3.83
2022-08-17T09:29:50.804Z,4.05
2022-08-17T09:32:30.247Z,3.45
2022-08-17T09:35:01.393Z,3.88
2022-08-17T09:37:36.319Z,4.10
2022-08-17T09:40:19.274Z,3.60
2022-08-17T09:42:50.611Z,3.72
2022-08-17T09:45:39.610Z,3.80
2022-08-17T09:48:18.309Z,3.83
2022-08-17T09:51:03.585Z,3.97
2022-08-17T09:53:32.703Z,3.70
2022-08-17T09:56:15.042Z,3.60
2022-08-17T09:58:42.173Z,3.30
2022-08-17T10:01:20.371Z,3.22
2022-08-17T10:03:53.800Z,3.63
2022-08-17T10:06:27.855Z,3.20
2022-08-17T10:09:09.697Z,3.20
2022-08-17T10:11:58.495Z,3.13
2022-08-17T10:14:43.659Z,3.20
2022-08-17T10:17:15.421Z,2.70
2022-08-17T10:19:48.407Z,3.05
2022-08-17T10:22:51.249Z,2.80
2022-08-17T10:25:53.938Z,2.95
2022-08-17T10:28:28.879Z,3.10
2022-08-17T10:31:23.195Z,2.97
2022-08-17T10:33:53.516Z,2.90
2022-08-17T10:36:27.285Z,3.10
2022-08-17T10:39:06.835Z,2.90
2022-08-17T10:41:42.514Z,2.95
2022-08-17T10:44:38.307Z,2.92
2022-08-17T10:47:08.152Z,3.05
2022-08-17T10:49:39.381Z,2.80
2022-08-17T10:52:21.966Z,3.03
2022-08-17T10:54:58.390Z,3.45
2022-08-17T10:57:32.234Z,3.17
2022-08-17T11:00:00.821Z,3.40
2022-08-17T11:02:49.976Z,3.47
2022-08-17T11:05:23.647Z,3.15
2022-08-17T11:07:53.611Z,3.00
2022-08-17T11:10:29.770Z,3.10
2022-08-17T11:13:09.670Z,3.28
2022-08-17T11:15:36.819Z,3.08
2022-08-17T11:18:03.964Z,2.92
2022-08-17T11:20:49.552Z,2.97
2022-08-17T11:23:25.893Z,3.22
2022-08-17T11:25:54.501Z,3.20
2022-08-17T11:28:34.379Z,3.05
2022-08-17T11:31:10.217Z,3.10
2022-08-17T11:33:57.731Z,2.95
2022-08-17T11:36:41.519Z,3.25
2022-08-17T11:39:33.697Z,2.92
2022-08-17T11:42:18.443Z,3.13
2022-08-17T11:44:54.001Z,3.00
2022-08-17T11:48:15.991Z,3.63
2022-08-17T11:51:19.535Z,3.00
2022-08-17T11:53:46.868Z,3.25
2022-08-17T11:56:32.619Z,3.17
2022-08-17T11:59:00.787Z,2.92
2022-08-17T12:01:29.263Z,2.40
2022-08-17T12:04:16.399Z,2.63
2022-08-17T12:06:48.953Z,2.83
2022-08-17T12:09:21.113Z,2.47
2022-08-17T12:12:11.175Z,2.55
2022-08-17T12:15:12.391Z,2.95
2022-08-17T12:17:40.092Z,2.80
2022-08-17T12:20:11.785Z,3.10
2022-08-17T12:22:49.497Z,2.78
2022-08-17T12:25:20.763Z,2.83
2022-08-17T12:28:05.990Z,2.80
2022-08-17T12:30:35.893Z,2.65
2022-08-17T12:33:03.150Z,3.22
2022-08-17T12:35:33.167Z,2.90
2022-08-17T12:38:01.191Z,3.10
2022-08-17T12:40:31.389Z,3.22
2022-08-17T12:42:58.552Z,3.50
2022-08-17T12:45:29.324Z,3.08
2022-08-17T12:48:04.109Z,3.10
2022-08-17T12:50:32.143Z,3.15
2022-08-17T12:53:02.210Z,3.40
2022-08-17T12:55:32.620Z,3.70
2022-08-17T12:58:02.071Z,4.10
2022-08-17T13:00:33.805Z,3.67
2022-08-17T13:03:07.669Z,3.78
2022-08-17T13:05:39.585Z,3.55
2022-08-17T13:08:19.861Z,3.63
2022-08-17T13:11:08.407Z,3.22
2022-08-17T13:13:37.533Z,3.50
2022-08-17T13:16:06.462Z,3.47
2022-08-17T13:18:44.529Z,3.45
2022-08-17T13:21:33.160Z,3.10
2022-08-17T13:24:00.249Z,3.20
2022-08-17T13:26:39.623Z,3.65
2022-08-17T13:29:27.076Z,3.20
2022-08-17T13:32:04.166Z,3.25
2022-08-17T13:34:35.803Z,3.58
2022-08-17T13:37:34.118Z,3.45
2022-08-17T13:40:07.578Z,3.67
2022-08-17T13:42:52.037Z,3.05
2022-08-17T13:45:35.695Z,3.28
2022-08-17T13:48:12.356Z,2.97
2022-08-17T13:50:45.647Z,3.42
2022-08-17T13:53:17.264Z,3.13
2022-08-17T13:55:52.547Z,3.38
2022-08-17T13:58:21.053Z,3.03
2022-08-17T14:00:48.316Z,3.30
2022-08-17T14:03:15.450Z,3.60
2022-08-17T14:05:42.732Z,3.47
2022-08-17T14:08:12.118Z,3.50
2022-08-17T14:10:39.349Z,3.25
2022-08-17T14:13:07.197Z,3.33
2022-08-17T14:15:55.636Z,3.38
2022-08-17T14:18:52.034Z,3.42
2022-08-17T14:21:10.095Z,3.38
2022-08-17T14:23:37.799Z,3.20
2022-08-17T14:26:05.291Z,3.22
2022-08-17T14:28:32.523Z,3.25
2022-08-17T14:31:01.090Z,3.15
2022-08-17T14:33:31.014Z,3.05
2022-08-17T14:35:58.199Z,3.05
2022-08-17T14:38:25.423Z,3.42
2022-08-17T14:40:52.726Z,3.25
2022-08-17T14:43:20.500Z,3.15
2022-08-17T14:45:47.637Z,3.10
2022-08-17T14:48:14.856Z,2.90
2022-08-17T14:50:42.861Z,2.85
2022-08-17T14:53:11.430Z,3.03
2022-08-17T14:55:40.483Z,3.00
2022-08-17T14:58:08.909Z,2.95
2022-08-17T15:00:36.247Z,3.30
2022-08-17T15:03:04.002Z,3.22
2022-08-17T15:05:33.540Z,3.40
2022-08-17T15:08:01.887Z,2.90
2022-08-17T15:10:29.842Z,3.42
2022-08-17T15:12:57.999Z,3.20
2022-08-17T15:15:25.281Z,3.28
2022-08-17T15:17:52.524Z,3.30
2022-08-17T15:20:24.684Z,3.25
2022-08-17T15:22:55.545Z,3.33
2022-08-17T15:25:23.426Z,3.38
2022-08-17T15:27:51.131Z,3.25
2022-08-17T15:30:18.494Z,3.38
2022-08-17T15:32:46.819Z,3.50
2022-08-17T15:35:26.831Z,3.30
2022-08-17T15:37:55.630Z,2.97
2022-08-17T15:40:22.828Z,3.28
2022-08-17T15:42:51.072Z,3.03
2022-08-17T15:45:22.524Z,3.10
2022-08-17T15:47:49.741Z,3.40
2022-08-17T15:50:17.256Z,3.03
2022-08-17T15:52:45.020Z,3.13
2022-08-17T15:55:13.797Z,3.30
2022-08-17T15:57:41.015Z,3.22
2022-08-17T16:00:09.649Z,3.00
2022-08-17T16:03:22.921Z,3.00
2022-08-17T16:05:25.369Z,3.40
2022-08-17T16:07:53.471Z,2.90
2022-08-17T16:10:21.584Z,3.00
2022-08-17T16:13:01.958Z,3.08
2022-08-17T16:15:31.145Z,3.10
2022-08-17T16:17:58.529Z,3.10
2022-08-17T16:20:25.676Z,2.95
2022-08-17T16:22:52.964Z,3.70
2022-08-17T16:25:22.998Z,3.40
2022-08-17T16:28:10.247Z,3.55
2022-08-17T16:30:38.264Z,3.60
2022-08-17T16:33:05.922Z,3.50
2022-08-17T16:35:33.266Z,3.30
2022-08-17T16:38:00.407Z,3.50
2022-08-17T16:40:29.056Z,3.70
2022-08-17T16:42:57.702Z,3.47
2022-08-17T16:45:26.413Z,3.72
2022-08-17T16:47:55.141Z,3.58
2022-08-17T16:50:23.613Z,3.80
2022-08-17T16:52:51.344Z,3.70
2022-08-17T16:55:20.308Z,3.75
2022-08-17T16:57:50.330Z,3.58
2022-08-17T17:00:19.496Z,3.70
2022-08-17T17:02:48.149Z,3.60
2022-08-17T17:05:22.130Z,3.50
2022-08-17T17:08:01.121Z,3.53
2022-08-17T17:10:48.563Z,3.47
2022-08-17T17:13:22.369Z,3.95
2022-08-17T17:15:53.508Z,3.60
2022-08-17T17:18:23.536Z,3.47
2022-08-17T17:20:55.364Z,3.67
2022-08-17T17:23:28.515Z,3.80
2022-08-17T17:26:14.201Z,3.40
2022-08-17T17:29:03.661Z,3.50
2022-08-17T17:31:34.122Z,3.92
2022-08-17T17:34:03.937Z,3.40
2022-08-17T17:36:34.090Z,3.90
2022-08-17T17:39:05.207Z,3.60
2022-08-17T17:41:42.740Z,3.80
2022-08-17T17:44:12.258Z,3.30
2022-08-17T17:46:48.987Z,3.58
2022-08-17T17:49:17.571Z,3.78
2022-08-17T17:52:06.258Z,3.70
2022-08-17T17:54:35.020Z,4.10
2022-08-17T17:57:17.582Z,3.80
2022-08-17T17:59:47.723Z,4.10
2022-08-17T18:02:37.668Z,3.80
2022-08-17T18:05:10.909Z,3.55
2022-08-17T18:07:58.269Z,3.92
2022-08-17T18:10:31.675Z,3.33
2022-08-17T18:13:05.366Z,4.03
2022-08-17T18:15:35.331Z,3.80
2022-08-17T18:18:05.315Z,3.75
2022-08-17T18:20:43.343Z,3.85
2022-08-17T18:23:25.550Z,3.88
2022-08-17T18:25:55.709Z,3.70
2022-08-17T18:28:31.325Z,3.80
2022-08-17T18:31:04.211Z,3.97
2022-08-17T18:33:31.573Z,3.83
2022-08-17T18:35:59.658Z,4.00
2022-08-17T18:38:33.844Z,3.63
2022-08-17T18:41:06.174Z,3.85
2022-08-17T18:43:52.823Z,4.13
2022-08-17T18:46:28.869Z,4.28
2022-08-17T18:48:59.282Z,3.92
2022-08-17T18:51:41.881Z,4.30
2022-08-17T18:54:25.419Z,4.45
2022-08-17T18:56:52.555Z,4.50
2022-08-17T18:59:22.685Z,4.18
2022-08-17T19:02:10.048Z,4.10
2022-08-17T19:04:43.787Z,3.90
2022-08-17T19:07:14.079Z,4.07
2022-08-17T19:09:44.923Z,4.00
2022-08-17T19:12:20.099Z,3.97
2022-08-17T19:14:51.063Z,3.90
2022-08-17T19:17:24.007Z,4.25
2022-08-17T19:19:52.266Z,4.18
2022-08-17T19:22:28.789Z,3.88
2022-08-17T19:25:03.726Z,4.10
2022-08-17T19:27:46.469Z,3.83
2022-08-17T19:30:17.055Z,4.25
2022-08-17T19:32:44.184Z,4.40
2022-08-17T19:35:17.107Z,4.32
2022-08-17T19:37:57.135Z,4.63
2022-08-17T19:40:51.093Z,5.10
2022-08-17T19:43:26.314Z,4.10
2022-08-17T19:46:01.089Z,4.22
2022-08-17T19:48:31.330Z,4.57
2022-08-17T19:51:05.898Z,4.85
2022-08-17T19:53:47.847Z,4.32
2022-08-17T19:56:38.343Z,4.60
2022-08-17T19:59:11.494Z,4.13
2022-08-17T20:01:58.105Z,4.47
2022-08-17T20:04:31.744Z,4.40
2022-08-17T20:07:05.189Z,4.53
2022-08-17T20:09:35.597Z,4.38
2022-08-17T20:12:08.214Z,4.20
2022-08-17T20:14:53.645Z,4.25
2022-08-17T20:17:23.238Z,4.40
2022-08-17T20:19:52.001Z,4.65
2022-08-17T20:22:23.416Z,4.95
2022-08-17T20:24:55.467Z,4.60
2022-08-17T20:27:31.392Z,4.70
2022-08-17T20:30:05.453Z,5.50
2022-08-17T20:32:55.748Z,5.20
2022-08-17T20:35:22.928Z,4.88
2022-08-17T20:38:02.126Z,4.80
2022-08-17T20:40:35.147Z,4.82
2022-08-17T20:43:21.236Z,4.55
2022-08-17T20:46:11.718Z,4.60
2022-08-17T20:48:41.767Z,4.93
2022-08-17T20:51:18.533Z,4.72
2022-08-17T20:53:49.033Z,4.43
2022-08-17T20:56:45.207Z,5.03
2022-08-17T20:59:25.898Z,4.68
2022-08-17T21:02:18.410Z,4.88
2022-08-17T21:04:47.354Z,4.90
2022-08-17T21:07:29.525Z,5.38
2022-08-17T21:10:15.535Z,4.70
2022-08-17T21:12:50.549Z,5.00
2022-08-17T21:15:23.473Z,5.07
2022-08-17T21:18:06.531Z,5.17
2022-08-17T21:20:41.992Z,5.07
2022-08-17T21:23:17.896Z,4.77
2022-08-17T21:25:48.156Z,5.20
2022-08-17T21:29:00.004Z,5.47
2022-08-17T21:31:45.337Z,5.07
2022-08-17T21:34:17.610Z,5.18
2022-08-17T21:36:45.189Z,5.33
2022-08-17T21:39:13.894Z,5.17
2022-08-17T21:41:52.738Z,5.40
2022-08-17T21:44:27.804Z,4.97
2022-08-17T21:47:12.592Z,5.20
2022-08-17T21:49:39.789Z,4.83
2022-08-17T21:52:07.686Z,4.70
2022-08-17T21:54:36.897Z,5.50
2022-08-17T21:57:06.118Z,5.57
2022-08-17T21:59:38.360Z,6.07
2022-08-17T22:02:07.040Z,5.37
2022-08-17T22:04:41.386Z,5.63
2022-08-17T22:07:12.778Z,4.97
2022-08-17T22:09:44.260Z,5.32
2022-08-17T22:12:11.446Z,5.07
2022-08-17T22:14:52.411Z,4.87
2022-08-17T22:17:25.672Z,4.93
2022-08-17T22:20:14.334Z,5.05
2022-08-17T22:23:05.925Z,4.77
2022-08-17T22:25:35.899Z,4.97
2022-08-17T22:28:04.923Z,5.43
2022-08-17T22:30:37.737Z,5.00
2022-08-17T22:33:23.514Z,5.10
2022-08-17T22:36:08.242Z,5.20
2022-08-17T22:38:35.654Z,5.03
2022-08-17T22:41:15.522Z,4.97
2022-08-17T22:43:43.728Z,5.03
2022-08-17T22:46:12.108Z,5.40
2022-08-17T22:48:46.142Z,5.40
2022-08-17T22:51:14.648Z,5.13
2022-08-17T22:54:21.990Z,5.30
2022-08-17T22:57:30.710Z,5.10
2022-08-17T22:59:59.949Z,5.20
2022-08-17T23:02:34.313Z,5.40
2022-08-17T23:05:12.753Z,5.60
2022-08-17T23:07:40.614Z,5.00
2022-08-17T23:10:10.111Z,5.27
2022-08-17T23:12:39.595Z,5.20
2022-08-17T23:15:10.797Z,5.40
2022-08-17T23:17:38.761Z,5.53
2022-08-17T23:20:08.329Z,5.33
2022-08-17T23:22:38.073Z,5.60
2022-08-17T23:25:24.238Z,5.10
2022-08-17T23:27:51.519Z,5.30
2022-08-17T23:30:18.785Z,5.00
2022-08-17T23:32:53.341Z,4.87
2022-08-17T23:35:39.249Z,5.50
2022-08-17T23:38:08.752Z,5.30
2022-08-17T23:40:35.967Z,5.53
2022-08-17T23:43:12.908Z,5.30
2022-08-17T23:45:52.496Z,5.23
2022-08-17T23:48:32.688Z,5.50
2022-08-17T23:51:04.726Z,5.32
2022-08-17T23:53:34.201Z,5.17
2022-08-17T23:56:04.575Z,5.47
2022-08-17T23:58:38.453Z,5.90
